sensor_id;sensor_type;location;lat;lon;timestamp;P1;durP1;ratioP1;P2;durP2;ratioP2
45540;SDS011;31265;49.680;8.608;2023-03-01T00:01:47;5.28;;;2.38;;
45540;SDS011;31265;49.680;8.608;2023-03-01T00:04:17;7.87;;;2.87;;
45540;SDS011;31265;49.680;8.608;2023-03-01T00:06:45;7.63;;;2.78;;
45540;SDS011;31265;49.680;8.608;2023-03-01T00:09:14;3.95;;;2.35;;
45540;SDS011;31265;49.680;8.608;2023-03-01T00:11:43;5.60;;;2.97;;
45540;SDS011;31265;49.680;8.608;2023-03-01T00:14:13;7.72;;;3.03;;
45540;SDS011;31265;49.680;8.608;2023-03-01T00:16:43;8.85;;;2.30;;
45540;SDS011;31265;49.680;8.608;2023-03-01T00:19:13;5.53;;;2.45;;
45540;SDS011;31265;49.680;8.608;2023-03-01T00:21:44;8.07;;;3.58;;
45540;SDS011;31265;49.680;8.608;2023-03-01T00:24:13;7.72;;;3.10;;
45540;SDS011;31265;49.680;8.608;2023-03-01T00:26:42;8.63;;;3.17;;
45540;SDS011;31265;49.680;8.608;2023-03-01T00:29:17;7.68;;;3.97;;
45540;SDS011;31265;49.680;8.608;2023-03-01T00:31:47;6.50;;;3.45;;
45540;SDS011;31265;49.680;8.608;2023-03-01T00:34:15;6.22;;;2.63;;
45540;SDS011;31265;49.680;8.608;2023-03-01T00:36:46;5.68;;;3.25;;
45540;SDS011;31265;49.680;8.608;2023-03-01T00:39:15;9.18;;;3.30;;
45540;SDS011;31265;49.680;8.608;2023-03-01T00:44:13;8.10;;;3.28;;
45540;SDS011;31265;49.680;8.608;2023-03-01T00:46:43;9.38;;;4.28;;
45540;SDS011;31265;49.680;8.608;2023-03-01T00:49:11;7.45;;;2.72;;
45540;SDS011;31265;49.680;8.608;2023-03-01T00:51:39;11.00;;;4.30;;
45540;SDS011;31265;49.680;8.608;2023-03-01T00:54:10;7.32;;;2.70;;
45540;SDS011;31265;49.680;8.608;2023-03-01T00:56:41;7.10;;;3.25;;
45540;SDS011;31265;49.680;8.608;2023-03-01T00:59:09;9.70;;;2.95;;
45540;SDS011;31265;49.680;8.608;2023-03-01T01:01:38;7.90;;;3.25;;
45540;SDS011;31265;49.680;8.608;2023-03-01T01:04:08;8.18;;;3.88;;
45540;SDS011;31265;49.680;8.608;2023-03-01T01:06:39;9.98;;;3.67;;
45540;SDS011;31265;49.680;8.608;2023-03-01T01:09:11;8.40;;;3.55;;
45540;SDS011;31265;49.680;8.608;2023-03-01T01:11:45;6.95;;;3.42;;
45540;SDS011;31265;49.680;8.608;2023-03-01T01:14:15;7.63;;;3.30;;
45540;SDS011;31265;49.680;8.608;2023-03-01T01:16:44;8.70;;;3.37;;
45540;SDS011;31265;49.680;8.608;2023-03-01T01:19:13;12.73;;;4.18;;
45540;SDS011;31265;49.680;8.608;2023-03-01T01:21:43;10.88;;;4.35;;
45540;SDS011;31265;49.680;8.608;2023-03-01T01:24:13;8.30;;;3.37;;
45540;SDS011;31265;49.680;8.608;2023-03-01T01:26:42;6.95;;;2.83;;
45540;SDS011;31265;49.680;8.608;2023-03-01T01:29:12;6.72;;;2.90;;
45540;SDS011;31265;49.680;8.608;2023-03-01T01:31:41;8.17;;;2.83;;
45540;SDS011;31265;49.680;8.608;2023-03-01T01:34:12;7.53;;;3.38;;
45540;SDS011;31265;49.680;8.608;2023-03-01T01:36:43;12.20;;;3.83;;
45540;SDS011;31265;49.680;8.608;2023-03-01T01:39:17;14.43;;;4.03;;
45540;SDS011;31265;49.680;8.608;2023-03-01T01:41:45;6.82;;;3.13;;
45540;SDS011;31265;49.680;8.608;2023-03-01T01:44:15;5.97;;;3.47;;
45540;SDS011;31265;49.680;8.608;2023-03-01T01:46:47;11.10;;;4.70;;
45540;SDS011;31265;49.680;8.608;2023-03-01T01:49:25;7.32;;;3.08;;
45540;SDS011;31265;49.680;8.608;2023-03-01T01:52:00;10.93;;;3.90;;
45540;SDS011;31265;49.680;8.608;2023-03-01T01:54:38;10.15;;;3.83;;
45540;SDS011;31265;49.680;8.608;2023-03-01T01:57:11;12.40;;;4.38;;
45540;SDS011;31265;49.680;8.608;2023-03-01T01:59:43;5.32;;;3.05;;
45540;SDS011;31265;49.680;8.608;2023-03-01T02:02:14;11.43;;;3.75;;
45540;SDS011;31265;49.680;8.608;2023-03-01T02:04:43;6.32;;;3.25;;
45540;SDS011;31265;49.680;8.608;2023-03-01T02:07:14;9.20;;;3.88;;
45540;SDS011;31265;49.680;8.608;2023-03-01T02:09:48;7.85;;;3.83;;
45540;SDS011;31265;49.680;8.608;2023-03-01T02:12:19;7.70;;;3.58;;
45540;SDS011;31265;49.680;8.608;2023-03-01T02:14:50;9.10;;;4.38;;
45540;SDS011;31265;49.680;8.608;2023-03-01T02:17:19;12.95;;;3.55;;
45540;SDS011;31265;49.680;8.608;2023-03-01T02:19:52;9.63;;;3.80;;
45540;SDS011;31265;49.680;8.608;2023-03-01T02:22:34;9.05;;;3.35;;
45540;SDS011;31265;49.680;8.608;2023-03-01T02:25:10;8.80;;;3.70;;
45540;SDS011;31265;49.680;8.608;2023-03-01T02:27:49;10.65;;;4.63;;
45540;SDS011;31265;49.680;8.608;2023-03-01T02:30:26;9.93;;;4.80;;
45540;SDS011;31265;49.680;8.608;2023-03-01T02:32:56;9.43;;;4.30;;
45540;SDS011;31265;49.680;8.608;2023-03-01T02:35:30;11.32;;;3.88;;
45540;SDS011;31265;49.680;8.608;2023-03-01T02:38:02;8.27;;;3.95;;
45540;SDS011;31265;49.680;8.608;2023-03-01T02:40:34;12.60;;;4.78;;
45540;SDS011;31265;49.680;8.608;2023-03-01T02:43:06;12.45;;;3.55;;
45540;SDS011;31265;49.680;8.608;2023-03-01T02:45:47;8.90;;;3.88;;
45540;SDS011;31265;49.680;8.608;2023-03-01T02:48:15;14.23;;;5.20;;
45540;SDS011;31265;49.680;8.608;2023-03-01T02:50:46;8.95;;;4.18;;
45540;SDS011;31265;49.680;8.608;2023-03-01T02:53:33;13.07;;;4.18;;
45540;SDS011;31265;49.680;8.608;2023-03-01T02:56:07;11.20;;;5.05;;
45540;SDS011;31265;49.680;8.608;2023-03-01T02:58:40;9.05;;;3.42;;
45540;SDS011;31265;49.680;8.608;2023-03-01T03:01:14;8.93;;;3.88;;
45540;SDS011;31265;49.680;8.608;2023-03-01T03:03:43;7.57;;;3.58;;
45540;SDS011;31265;49.680;8.608;2023-03-01T03:06:12;15.88;;;5.15;;
45540;SDS011;31265;49.680;8.608;2023-03-01T03:08:41;6.85;;;3.22;;
45540;SDS011;31265;49.680;8.608;2023-03-01T03:11:10;10.32;;;2.92;;
45540;SDS011;31265;49.680;8.608;2023-03-01T03:13:39;9.88;;;3.53;;
45540;SDS011;31265;49.680;8.608;2023-03-01T03:16:17;10.77;;;3.50;;
45540;SDS011;31265;49.680;8.608;2023-03-01T03:18:49;6.43;;;3.45;;
45540;SDS011;31265;49.680;8.608;2023-03-01T03:21:17;9.85;;;3.70;;
45540;SDS011;31265;49.680;8.608;2023-03-01T03:23:46;10.32;;;4.10;;
45540;SDS011;31265;49.680;8.608;2023-03-01T03:26:14;9.13;;;4.07;;
45540;SDS011;31265;49.680;8.608;2023-03-01T03:28:43;11.30;;;3.25;;
45540;SDS011;31265;49.680;8.608;2023-03-01T03:31:13;14.65;;;3.83;;
45540;SDS011;31265;49.680;8.608;2023-03-01T03:33:43;8.05;;;4.22;;
45540;SDS011;31265;49.680;8.608;2023-03-01T03:36:14;11.77;;;2.92;;
45540;SDS011;31265;49.680;8.608;2023-03-01T03:38:44;7.55;;;3.25;;
45540;SDS011;31265;49.680;8.608;2023-03-01T03:41:13;13.55;;;3.92;;
45540;SDS011;31265;49.680;8.608;2023-03-01T03:43:42;9.23;;;3.83;;
45540;SDS011;31265;49.680;8.608;2023-03-01T03:46:11;8.32;;;3.85;;
45540;SDS011;31265;49.680;8.608;2023-03-01T03:48:40;12.32;;;4.40;;
45540;SDS011;31265;49.680;8.608;2023-03-01T03:51:12;9.15;;;3.35;;
45540;SDS011;31265;49.680;8.608;2023-03-01T03:53:42;7.35;;;3.97;;
45540;SDS011;31265;49.680;8.608;2023-03-01T03:56:11;8.10;;;3.33;;
45540;SDS011;31265;49.680;8.608;2023-03-01T03:58:39;7.82;;;4.18;;
45540;SDS011;31265;49.680;8.608;2023-03-01T04:01:07;27.35;;;3.97;;
45540;SDS011;31265;49.680;8.608;2023-03-01T04:03:36;10.15;;;4.20;;
45540;SDS011;31265;49.680;8.608;2023-03-01T04:06:06;11.70;;;3.85;;
45540;SDS011;31265;49.680;8.608;2023-03-01T04:08:35;10.30;;;4.65;;
45540;SDS011;31265;49.680;8.608;2023-03-01T04:11:07;7.15;;;3.80;;
45540;SDS011;31265;49.680;8.608;2023-03-01T04:13:55;7.63;;;3.67;;
45540;SDS011;31265;49.680;8.608;2023-03-01T04:16:26;5.80;;;3.50;;
45540;SDS011;31265;49.680;8.608;2023-03-01T04:18:55;10.52;;;3.97;;
45540;SDS011;31265;49.680;8.608;2023-03-01T04:21:26;8.88;;;3.78;;
45540;SDS011;31265;49.680;8.608;2023-03-01T04:23:56;11.30;;;4.95;;
45540;SDS011;31265;49.680;8.608;2023-03-01T04:26:24;6.68;;;3.80;;
45540;SDS011;31265;49.680;8.608;2023-03-01T04:31:22;8.88;;;3.78;;
45540;SDS011;31265;49.680;8.608;2023-03-01T04:33:51;10.38;;;3.83;;
45540;SDS011;31265;49.680;8.608;2023-03-01T04:36:21;13.52;;;3.75;;
45540;SDS011;31265;49.680;8.608;2023-03-01T04:38:52;13.70;;;4.80;;
45540;SDS011;31265;49.680;8.608;2023-03-01T04:41:23;8.98;;;3.95;;
45540;SDS011;31265;49.680;8.608;2023-03-01T04:43:52;14.02;;;5.20;;
45540;SDS011;31265;49.680;8.608;2023-03-01T04:46:20;11.95;;;4.88;;
45540;SDS011;31265;49.680;8.608;2023-03-01T04:48:49;9.52;;;4.00;;
45540;SDS011;31265;49.680;8.608;2023-03-01T04:51:20;12.23;;;5.10;;
45540;SDS011;31265;49.680;8.608;2023-03-01T04:53:48;10.15;;;5.60;;
45540;SDS011;31265;49.680;8.608;2023-03-01T04:56:17;14.05;;;5.28;;
45540;SDS011;31265;49.680;8.608;2023-03-01T04:58:47;12.95;;;5.30;;
45540;SDS011;31265;49.680;8.608;2023-03-01T05:01:16;10.90;;;4.18;;
45540;SDS011;31265;49.680;8.608;2023-03-01T05:03:47;10.75;;;4.78;;
45540;SDS011;31265;49.680;8.608;2023-03-01T05:06:17;9.30;;;4.32;;
45540;SDS011;31265;49.680;8.608;2023-03-01T05:08:48;11.48;;;4.97;;
45540;SDS011;31265;49.680;8.608;2023-03-01T05:11:17;14.02;;;5.93;;
45540;SDS011;31265;49.680;8.608;2023-03-01T05:13:46;10.45;;;3.72;;
45540;SDS011;31265;49.680;8.608;2023-03-01T05:16:16;9.70;;;4.30;;
45540;SDS011;31265;49.680;8.608;2023-03-01T05:18:46;10.85;;;5.00;;
45540;SDS011;31265;49.680;8.608;2023-03-01T05:21:14;14.30;;;4.70;;
45540;SDS011;31265;49.680;8.608;2023-03-01T05:23:43;9.70;;;3.72;;
45540;SDS011;31265;49.680;8.608;2023-03-01T05:26:12;10.90;;;5.35;;
45540;SDS011;31265;49.680;8.608;2023-03-01T05:29:02;9.38;;;3.05;;
45540;SDS011;31265;49.680;8.608;2023-03-01T05:31:30;9.73;;;4.05;;
45540;SDS011;31265;49.680;8.608;2023-03-01T05:33:59;8.88;;;4.00;;
45540;SDS011;31265;49.680;8.608;2023-03-01T05:36:28;8.25;;;3.47;;
45540;SDS011;31265;49.680;8.608;2023-03-01T05:38:57;10.48;;;3.78;;
45540;SDS011;31265;49.680;8.608;2023-03-01T05:41:25;7.82;;;3.05;;
45540;SDS011;31265;49.680;8.608;2023-03-01T05:43:54;14.13;;;4.88;;
45540;SDS011;31265;49.680;8.608;2023-03-01T05:46:24;8.23;;;4.20;;
45540;SDS011;31265;49.680;8.608;2023-03-01T05:51:21;7.07;;;3.00;;
45540;SDS011;31265;49.680;8.608;2023-03-01T05:53:50;14.73;;;4.47;;
45540;SDS011;31265;49.680;8.608;2023-03-01T05:56:18;7.88;;;3.67;;
45540;SDS011;31265;49.680;8.608;2023-03-01T05:58:48;11.30;;;5.07;;
45540;SDS011;31265;49.680;8.608;2023-03-01T06:01:17;7.05;;;3.55;;
45540;SDS011;31265;49.680;8.608;2023-03-01T06:03:47;10.18;;;4.50;;
45540;SDS011;31265;49.680;8.608;2023-03-01T06:06:15;8.68;;;3.90;;
45540;SDS011;31265;49.680;8.608;2023-03-01T06:08:45;8.68;;;4.10;;
45540;SDS011;31265;49.680;8.608;2023-03-01T06:11:14;8.48;;;3.83;;
45540;SDS011;31265;49.680;8.608;2023-03-01T06:13:43;7.22;;;3.38;;
45540;SDS011;31265;49.680;8.608;2023-03-01T06:16:13;15.13;;;4.75;;
45540;SDS011;31265;49.680;8.608;2023-03-01T06:18:42;5.43;;;3.47;;
45540;SDS011;31265;49.680;8.608;2023-03-01T06:21:12;12.20;;;4.38;;
45540;SDS011;31265;49.680;8.608;2023-03-01T06:23:43;8.52;;;3.72;;
45540;SDS011;31265;49.680;8.608;2023-03-01T06:26:14;7.82;;;4.15;;
45540;SDS011;31265;49.680;8.608;2023-03-01T06:28:43;7.38;;;3.55;;
45540;SDS011;31265;49.680;8.608;2023-03-01T06:31:17;16.65;;;4.43;;
45540;SDS011;31265;49.680;8.608;2023-03-01T06:33:49;7.63;;;3.97;;
45540;SDS011;31265;49.680;8.608;2023-03-01T06:36:21;8.23;;;4.40;;
45540;SDS011;31265;49.680;8.608;2023-03-01T06:38:50;11.73;;;4.60;;
45540;SDS011;31265;49.680;8.608;2023-03-01T06:41:18;7.80;;;3.50;;
45540;SDS011;31265;49.680;8.608;2023-03-01T06:43:47;9.63;;;4.53;;
45540;SDS011;31265;49.680;8.608;2023-03-01T06:46:15;12.65;;;3.38;;
45540;SDS011;31265;49.680;8.608;2023-03-01T06:48:43;10.60;;;4.80;;
45540;SDS011;31265;49.680;8.608;2023-03-01T06:51:12;8.90;;;4.85;;
45540;SDS011;31265;49.680;8.608;2023-03-01T06:53:42;14.63;;;4.20;;
45540;SDS011;31265;49.680;8.608;2023-03-01T06:56:11;8.65;;;4.35;;
45540;SDS011;31265;49.680;8.608;2023-03-01T06:58:39;13.70;;;5.05;;
45540;SDS011;31265;49.680;8.608;2023-03-01T07:01:13;10.13;;;4.65;;
45540;SDS011;31265;49.680;8.608;2023-03-01T07:03:46;7.57;;;4.03;;
45540;SDS011;31265;49.680;8.608;2023-03-01T07:06:14;12.13;;;5.30;;
45540;SDS011;31265;49.680;8.608;2023-03-01T07:08:45;10.50;;;4.50;;
45540;SDS011;31265;49.680;8.608;2023-03-01T07:11:13;9.23;;;4.25;;
45540;SDS011;31265;49.680;8.608;2023-03-01T07:13:42;11.07;;;5.18;;
45540;SDS011;31265;49.680;8.608;2023-03-01T07:16:11;8.45;;;4.05;;
45540;SDS011;31265;49.680;8.608;2023-03-01T07:18:41;11.35;;;5.22;;
45540;SDS011;31265;49.680;8.608;2023-03-01T07:21:11;8.23;;;3.97;;
45540;SDS011;31265;49.680;8.608;2023-03-01T07:23:40;9.38;;;4.43;;
45540;SDS011;31265;49.680;8.608;2023-03-01T07:26:12;8.55;;;4.25;;
45540;SDS011;31265;49.680;8.608;2023-03-01T07:28:43;13.00;;;5.15;;
45540;SDS011;31265;49.680;8.608;2023-03-01T07:31:11;16.60;;;5.47;;
45540;SDS011;31265;49.680;8.608;2023-03-01T07:33:40;11.88;;;5.10;;
45540;SDS011;31265;49.680;8.608;2023-03-01T07:36:08;11.98;;;4.65;;
45540;SDS011;31265;49.680;8.608;2023-03-01T07:38:37;10.70;;;4.43;;
45540;SDS011;31265;49.680;8.608;2023-03-01T07:41:05;12.27;;;6.05;;
45540;SDS011;31265;49.680;8.608;2023-03-01T07:43:35;10.43;;;4.78;;
45540;SDS011;31265;49.680;8.608;2023-03-01T07:48:32;11.25;;;5.03;;
45540;SDS011;31265;49.680;8.608;2023-03-01T07:51:03;7.13;;;4.07;;
45540;SDS011;31265;49.680;8.608;2023-03-01T07:53:33;14.60;;;5.10;;
45540;SDS011;31265;49.680;8.608;2023-03-01T07:56:02;15.02;;;5.60;;
45540;SDS011;31265;49.680;8.608;2023-03-01T07:58:34;7.22;;;3.67;;
45540;SDS011;31265;49.680;8.608;2023-03-01T08:01:04;12.75;;;5.45;;
45540;SDS011;31265;49.680;8.608;2023-03-01T08:03:33;12.25;;;5.10;;
45540;SDS011;31265;49.680;8.608;2023-03-01T08:06:03;9.77;;;4.93;;
45540;SDS011;31265;49.680;8.608;2023-03-01T08:08:33;15.70;;;5.28;;
45540;SDS011;31265;49.680;8.608;2023-03-01T08:11:03;12.57;;;5.68;;
45540;SDS011;31265;49.680;8.608;2023-03-01T08:13:33;14.27;;;5.32;;
45540;SDS011;31265;49.680;8.608;2023-03-01T08:16:03;10.93;;;5.20;;
45540;SDS011;31265;49.680;8.608;2023-03-01T08:18:34;9.57;;;4.57;;
45540;SDS011;31265;49.680;8.608;2023-03-01T08:21:03;9.85;;;4.82;;
45540;SDS011;31265;49.680;8.608;2023-03-01T08:23:32;11.40;;;4.45;;
45540;SDS011;31265;49.680;8.608;2023-03-01T08:26:05;15.83;;;5.97;;
45540;SDS011;31265;49.680;8.608;2023-03-01T08:28:36;10.32;;;4.57;;
45540;SDS011;31265;49.680;8.608;2023-03-01T08:31:13;15.43;;;5.28;;
45540;SDS011;31265;49.680;8.608;2023-03-01T08:33:42;12.77;;;4.53;;
45540;SDS011;31265;49.680;8.608;2023-03-01T08:36:11;11.27;;;4.23;;
45540;SDS011;31265;49.680;8.608;2023-03-01T08:38:40;11.57;;;4.70;;
45540;SDS011;31265;49.680;8.608;2023-03-01T08:41:09;11.35;;;5.70;;
45540;SDS011;31265;49.680;8.608;2023-03-01T08:43:39;11.18;;;5.10;;
45540;SDS011;31265;49.680;8.608;2023-03-01T08:46:08;8.82;;;5.07;;
45540;SDS011;31265;49.680;8.608;2023-03-01T08:48:36;12.80;;;5.38;;
45540;SDS011;31265;49.680;8.608;2023-03-01T08:51:08;10.10;;;4.82;;
45540;SDS011;31265;49.680;8.608;2023-03-01T08:53:38;12.15;;;4.95;;
45540;SDS011;31265;49.680;8.608;2023-03-01T08:56:07;13.23;;;5.37;;
45540;SDS011;31265;49.680;8.608;2023-03-01T08:58:36;12.30;;;6.05;;
45540;SDS011;31265;49.680;8.608;2023-03-01T09:01:10;13.02;;;5.85;;
45540;SDS011;31265;49.680;8.608;2023-03-01T09:03:39;19.50;;;5.53;;
45540;SDS011;31265;49.680;8.608;2023-03-01T09:06:08;13.10;;;5.10;;
45540;SDS011;31265;49.680;8.608;2023-03-01T09:08:37;13.38;;;5.85;;
45540;SDS011;31265;49.680;8.608;2023-03-01T09:11:09;14.55;;;6.05;;
45540;SDS011;31265;49.680;8.608;2023-03-01T09:16:13;10.00;;;4.40;;
45540;SDS011;31265;49.680;8.608;2023-03-01T09:18:42;10.10;;;5.40;;
45540;SDS011;31265;49.680;8.608;2023-03-01T09:21:11;12.02;;;5.68;;
45540;SDS011;31265;49.680;8.608;2023-03-01T09:23:42;12.05;;;5.07;;
45540;SDS011;31265;49.680;8.608;2023-03-01T09:26:13;15.60;;;6.60;;
45540;SDS011;31265;49.680;8.608;2023-03-01T09:28:46;11.52;;;6.03;;
45540;SDS011;31265;49.680;8.608;2023-03-01T09:31:16;12.93;;;5.38;;
45540;SDS011;31265;49.680;8.608;2023-03-01T09:33:48;16.00;;;5.88;;
45540;SDS011;31265;49.680;8.608;2023-03-01T09:36:18;13.48;;;5.93;;
45540;SDS011;31265;49.680;8.608;2023-03-01T09:38:49;12.45;;;5.65;;
45540;SDS011;31265;49.680;8.608;2023-03-01T09:41:33;13.40;;;5.95;;
45540;SDS011;31265;49.680;8.608;2023-03-01T09:44:13;14.68;;;6.15;;
45540;SDS011;31265;49.680;8.608;2023-03-01T09:46:55;10.75;;;5.15;;
45540;SDS011;31265;49.680;8.608;2023-03-01T09:49:24;11.82;;;5.38;;
45540;SDS011;31265;49.680;8.608;2023-03-01T09:51:55;12.95;;;5.07;;
45540;SDS011;31265;49.680;8.608;2023-03-01T09:54:27;13.90;;;5.47;;
45540;SDS011;31265;49.680;8.608;2023-03-01T09:57:01;11.40;;;5.70;;
45540;SDS011;31265;49.680;8.608;2023-03-01T09:59:44;13.43;;;5.30;;
45540;SDS011;31265;49.680;8.608;2023-03-01T10:02:26;20.58;;;6.55;;
45540;SDS011;31265;49.680;8.608;2023-03-01T10:04:59;12.73;;;6.03;;
45540;SDS011;31265;49.680;8.608;2023-03-01T10:07:43;14.20;;;6.70;;
45540;SDS011;31265;49.680;8.608;2023-03-01T10:10:27;12.55;;;6.32;;
45540;SDS011;31265;49.680;8.608;2023-03-01T10:13:00;12.60;;;5.82;;
45540;SDS011;31265;49.680;8.608;2023-03-01T10:15:36;15.60;;;6.22;;
45540;SDS011;31265;49.680;8.608;2023-03-01T10:18:13;14.07;;;5.65;;
45540;SDS011;31265;49.680;8.608;2023-03-01T10:20:46;18.67;;;6.50;;
45540;SDS011;31265;49.680;8.608;2023-03-01T10:23:20;12.27;;;5.57;;
45540;SDS011;31265;49.680;8.608;2023-03-01T10:25:56;12.15;;;5.53;;
45540;SDS011;31265;49.680;8.608;2023-03-01T10:28:37;10.18;;;5.28;;
45540;SDS011;31265;49.680;8.608;2023-03-01T10:31:18;11.13;;;5.13;;
45540;SDS011;31265;49.680;8.608;2023-03-01T10:33:56;12.70;;;6.30;;
45540;SDS011;31265;49.680;8.608;2023-03-01T10:36:25;17.00;;;7.28;;
45540;SDS011;31265;49.680;8.608;2023-03-01T10:38:54;13.32;;;5.50;;
45540;SDS011;31265;49.680;8.608;2023-03-01T10:41:26;9.10;;;4.78;;
45540;SDS011;31265;49.680;8.608;2023-03-01T10:43:57;15.93;;;6.20;;
45540;SDS011;31265;49.680;8.608;2023-03-01T10:46:27;11.43;;;5.97;;
45540;SDS011;31265;49.680;8.608;2023-03-01T10:51:53;11.40;;;4.93;;
45540;SDS011;31265;49.680;8.608;2023-03-01T10:54:22;13.30;;;5.90;;
45540;SDS011;31265;49.680;8.608;2023-03-01T10:56:55;16.90;;;6.40;;
45540;SDS011;31265;49.680;8.608;2023-03-01T10:59:26;12.98;;;5.75;;
45540;SDS011;31265;49.680;8.608;2023-03-01T11:02:07;12.05;;;5.15;;
45540;SDS011;31265;49.680;8.608;2023-03-01T11:07:47;11.45;;;4.93;;
45540;SDS011;31265;49.680;8.608;2023-03-01T11:10:17;15.40;;;5.78;;
45540;SDS011;31265;49.680;8.608;2023-03-01T11:12:47;16.95;;;6.20;;
45540;SDS011;31265;49.680;8.608;2023-03-01T11:15:23;12.07;;;5.53;;
45540;SDS011;31265;49.680;8.608;2023-03-01T11:17:54;13.95;;;5.10;;
45540;SDS011;31265;49.680;8.608;2023-03-01T11:20:42;12.52;;;5.63;;
45540;SDS011;31265;49.680;8.608;2023-03-01T11:23:11;15.60;;;5.30;;
45540;SDS011;31265;49.680;8.608;2023-03-01T11:25:43;13.52;;;5.38;;
45540;SDS011;31265;49.680;8.608;2023-03-01T11:28:16;12.65;;;6.00;;
45540;SDS011;31265;49.680;8.608;2023-03-01T11:30:48;16.45;;;5.90;;
45540;SDS011;31265;49.680;8.608;2023-03-01T11:33:34;14.07;;;6.25;;
45540;SDS011;31265;49.680;8.608;2023-03-01T11:36:13;12.45;;;5.18;;
45540;SDS011;31265;49.680;8.608;2023-03-01T11:38:48;8.43;;;4.40;;
45540;SDS011;31265;49.680;8.608;2023-03-01T11:41:18;11.48;;;5.60;;
45540;SDS011;31265;49.680;8.608;2023-03-01T11:43:51;9.00;;;5.00;;
45540;SDS011;31265;49.680;8.608;2023-03-01T11:46:34;11.18;;;5.60;;
45540;SDS011;31265;49.680;8.608;2023-03-01T11:49:26;14.05;;;6.15;;
45540;SDS011;31265;49.680;8.608;2023-03-01T11:52:15;13.98;;;5.75;;
45540;SDS011;31265;49.680;8.608;2023-03-01T11:54:57;13.15;;;4.97;;
45540;SDS011;31265;49.680;8.608;2023-03-01T11:57:43;12.00;;;5.05;;
45540;SDS011;31265;49.680;8.608;2023-03-01T12:00:35;11.95;;;4.88;;
45540;SDS011;31265;49.680;8.608;2023-03-01T12:03:43;9.98;;;5.10;;
45540;SDS011;31265;49.680;8.608;2023-03-01T12:06:28;11.13;;;5.63;;
45540;SDS011;31265;49.680;8.608;2023-03-01T12:12:18;10.82;;;4.45;;
45540;SDS011;31265;49.680;8.608;2023-03-01T12:14:59;13.00;;;5.03;;
45540;SDS011;31265;49.680;8.608;2023-03-01T12:17:43;8.50;;;4.93;;
45540;SDS011;31265;49.680;8.608;2023-03-01T12:20:28;10.18;;;4.90;;
45540;SDS011;31265;49.680;8.608;2023-03-01T12:23:16;11.25;;;5.43;;
45540;SDS011;31265;49.680;8.608;2023-03-01T12:25:58;8.50;;;4.38;;
45540;SDS011;31265;49.680;8.608;2023-03-01T12:31:40;10.35;;;4.72;;
45540;SDS011;31265;49.680;8.608;2023-03-01T12:34:22;8.77;;;4.35;;
45540;SDS011;31265;49.680;8.608;2023-03-01T12:37:09;11.45;;;4.97;;
45540;SDS011;31265;49.680;8.608;2023-03-01T12:39:54;12.18;;;4.20;;
45540;SDS011;31265;49.680;8.608;2023-03-01T12:42:33;13.20;;;5.18;;
45540;SDS011;31265;49.680;8.608;2023-03-01T12:45:27;10.63;;;4.75;;
45540;SDS011;31265;49.680;8.608;2023-03-01T12:48:09;15.35;;;4.38;;
45540;SDS011;31265;49.680;8.608;2023-03-01T12:50:52;12.27;;;5.00;;
45540;SDS011;31265;49.680;8.608;2023-03-01T12:53:23;12.15;;;4.82;;
45540;SDS011;31265;49.680;8.608;2023-03-01T12:55:53;11.88;;;4.50;;
45540;SDS011;31265;49.680;8.608;2023-03-01T12:58:29;9.00;;;4.97;;
45540;SDS011;31265;49.680;8.608;2023-03-01T13:01:18;12.18;;;4.95;;
45540;SDS011;31265;49.680;8.608;2023-03-01T13:04:10;11.63;;;4.88;;
45540;SDS011;31265;49.680;8.608;2023-03-01T13:06:47;9.52;;;4.30;;
45540;SDS011;31265;49.680;8.608;2023-03-01T13:09:25;9.23;;;4.82;;
45540;SDS011;31265;49.680;8.608;2023-03-01T13:11:59;10.52;;;4.13;;
45540;SDS011;31265;49.680;8.608;2023-03-01T13:14:36;10.05;;;5.03;;
45540;SDS011;31265;49.680;8.608;2023-03-01T13:20:02;9.23;;;4.22;;
45540;SDS011;31265;49.680;8.608;2023-03-01T13:22:40;7.32;;;3.75;;
45540;SDS011;31265;49.680;8.608;2023-03-01T13:25:21;8.77;;;3.97;;
45540;SDS011;31265;49.680;8.608;2023-03-01T13:31:10;7.13;;;4.03;;
45540;SDS011;31265;49.680;8.608;2023-03-01T13:33:59;13.63;;;4.43;;
45540;SDS011;31265;49.680;8.608;2023-03-01T13:36:46;17.77;;;4.53;;
45540;SDS011;31265;49.680;8.608;2023-03-01T13:39:29;7.90;;;4.00;;
45540;SDS011;31265;49.680;8.608;2023-03-01T13:42:00;9.77;;;4.40;;
45540;SDS011;31265;49.680;8.608;2023-03-01T13:44:32;7.85;;;3.42;;
45540;SDS011;31265;49.680;8.608;2023-03-01T13:47:06;10.02;;;4.00;;
45540;SDS011;31265;49.680;8.608;2023-03-01T13:49:46;8.25;;;4.00;;
45540;SDS011;31265;49.680;8.608;2023-03-01T13:52:30;8.75;;;3.50;;
45540;SDS011;31265;49.680;8.608;2023-03-01T13:55:03;6.95;;;2.65;;
45540;SDS011;31265;49.680;8.608;2023-03-01T13:57:42;5.97;;;2.55;;
45540;SDS011;31265;49.680;8.608;2023-03-01T14:00:24;6.63;;;2.85;;
45540;SDS011;31265;49.680;8.608;2023-03-01T14:03:04;5.68;;;2.95;;
45540;SDS011;31265;49.680;8.608;2023-03-01T14:05:41;10.18;;;3.20;;
45540;SDS011;31265;49.680;8.608;2023-03-01T14:08:22;8.18;;;3.42;;
45540;SDS011;31265;49.680;8.608;2023-03-01T14:10:54;5.50;;;2.85;;
45540;SDS011;31265;49.680;8.608;2023-03-01T14:13:38;6.22;;;2.95;;
45540;SDS011;31265;49.680;8.608;2023-03-01T14:16:20;10.48;;;4.30;;
45540;SDS011;31265;49.680;8.608;2023-03-01T14:19:04;6.47;;;3.40;;
45540;SDS011;31265;49.680;8.608;2023-03-01T14:21:58;7.50;;;2.90;;
45540;SDS011;31265;49.680;8.608;2023-03-01T14:24:39;6.30;;;3.08;;
45540;SDS011;31265;49.680;8.608;2023-03-01T14:27:12;8.55;;;3.40;;
45540;SDS011;31265;49.680;8.608;2023-03-01T14:29:42;9.57;;;2.80;;
45540;SDS011;31265;49.680;8.608;2023-03-01T14:32:22;6.30;;;3.45;;
45540;SDS011;31265;49.680;8.608;2023-03-01T14:34:55;4.82;;;2.45;;
45540;SDS011;31265;49.680;8.608;2023-03-01T14:37:25;7.25;;;3.42;;
45540;SDS011;31265;49.680;8.608;2023-03-01T14:39:58;10.25;;;4.03;;
45540;SDS011;31265;49.680;8.608;2023-03-01T14:42:29;7.05;;;3.15;;
45540;SDS011;31265;49.680;8.608;2023-03-01T14:45:03;6.85;;;3.13;;
45540;SDS011;31265;49.680;8.608;2023-03-01T14:47:34;7.15;;;2.72;;
45540;SDS011;31265;49.680;8.608;2023-03-01T14:50:08;4.47;;;2.17;;
45540;SDS011;31265;49.680;8.608;2023-03-01T14:52:45;6.32;;;3.15;;
45540;SDS011;31265;49.680;8.608;2023-03-01T14:55:17;5.70;;;2.90;;
45540;SDS011;31265;49.680;8.608;2023-03-01T14:57:48;6.13;;;2.47;;
45540;SDS011;31265;49.680;8.608;2023-03-01T15:00:19;5.43;;;2.78;;
45540;SDS011;31265;49.680;8.608;2023-03-01T15:02:51;4.90;;;2.33;;
45540;SDS011;31265;49.680;8.608;2023-03-01T15:05:25;7.65;;;3.17;;
45540;SDS011;31265;49.680;8.608;2023-03-01T15:08:00;9.38;;;3.15;;
45540;SDS011;31265;49.680;8.608;2023-03-01T15:10:31;6.70;;;3.58;;
45540;SDS011;31265;49.680;8.608;2023-03-01T15:13:10;8.15;;;2.88;;
45540;SDS011;31265;49.680;8.608;2023-03-01T15:15:42;7.72;;;3.13;;
45540;SDS011;31265;49.680;8.608;2023-03-01T15:18:14;7.75;;;3.13;;
45540;SDS011;31265;49.680;8.608;2023-03-01T15:20:48;6.13;;;3.10;;
45540;SDS011;31265;49.680;8.608;2023-03-01T15:23:20;8.60;;;3.25;;
45540;SDS011;31265;49.680;8.608;2023-03-01T15:25:52;7.07;;;3.05;;
45540;SDS011;31265;49.680;8.608;2023-03-01T15:28:25;6.22;;;3.03;;
45540;SDS011;31265;49.680;8.608;2023-03-01T15:30:57;5.97;;;3.00;;
45540;SDS011;31265;49.680;8.608;2023-03-01T15:33:29;4.07;;;2.55;;
45540;SDS011;31265;49.680;8.608;2023-03-01T15:36:30;7.43;;;3.03;;
45540;SDS011;31265;49.680;8.608;2023-03-01T15:38:59;6.40;;;2.47;;
45540;SDS011;31265;49.680;8.608;2023-03-01T15:41:31;6.50;;;2.45;;
45540;SDS011;31265;49.680;8.608;2023-03-01T15:44:14;5.68;;;3.22;;
45540;SDS011;31265;49.680;8.608;2023-03-01T15:46:45;7.78;;;3.08;;